Pagina principală
METAR-TAF:

METAR-TAF

Aeroporturi :

Insula Wake, Statele Unite ale Americii

Latitudine: 19-17N, longitudine: 166-39E, elevație: 4 m

Observații meteo curente

Raportul a fost făcut în urmă cu 23 de minute, la 08:55 UTC
Vânt 16 kt de la Nord-est
Temperatură 28°C
Umiditate 79%
Presiune 1015 hPa
Vizibilitate: 16.1 km
Cer senin

METAR: PWAK 170855Z AUTO 05016KT 10SM CLR 28/24 A2997 RMK AO2 SLP151 60009 T02780240 52016

Ora: 21:18 (09:18 UTC)

Prognoză

Raportul a fost făcut în urmă cu 3 ore și 18 de minute, la 06:00 UTC
Prognoză valabilă de la 17 ora 06 UTC la 18 ora 12 UTC
Vânt 15 kt de la Est
Vizibilitate: 9000 m
Nori fragmentați la o înălțime de 2000 picior
aer cețos,

TAF: PWAK 170600Z 1706/1812 09015KT 9000 BR BKN020 QNH2990INS TX33/1801Z TN26/1712Z

Observații și prognoze meteo pentru peste 4.000 de aeroporturi (rapoarte METAR și TAF).

Stațiile disponibile sunt reprezentate pe hartă prin puncte galbene și roșii.

Țineți indicatorul mouse-ului pe punctul dorit pentru a vedea denumirea stației.

Apoi, faceți clic pentru a vedea observațiile și prognozele meteorologice.

Pentru a schimba harta: Pentru mărire, faceți clic pe butoanele verzi cu cruce neagră; pentru micșorare, pe butonul verde cu o liniuță; pentru hărți învecinate, pe săgețile verzi.


METAR-TAF: